Time;durP1;ratioP1;P1;durP2;ratioP2;P2;SDS_P1;SDS_P2;PMS_P1;PMS_P2;Temp;Humidity;BMP_temperature;BMP_pressure;BME280_temperature;BME280_humidity;BME280_pressure;Samples;Min_cycle;Max_cycle;Signal;HPM_P1;HPM_P2
2023/11/24 00:02:26;;;;;;;1999.90;999.90;;;;;;;8.07;94.96;96038.75;5113565;28;20047;-63
2023/11/24 00:04:53;;;;;;;1999.90;999.90;;;;;;;8.09;94.69;96032.56;5113468;28;20575;-65
2023/11/24 00:07:20;;;;;;;1999.90;999.90;;;;;;;8.06;94.52;96029.22;5113248;28;20047;-66
2023/11/24 00:09:49;;;;;;;1999.90;999.90;;;;;;;8.08;94.63;96025.66;5113325;28;20052;-63
2023/11/24 00:12:16;;;;;;;1999.90;999.90;;;;;;;8.08;94.50;96023.06;5113359;28;20044;-63
2023/11/24 00:14:44;;;;;;;1999.90;999.90;;;;;;;8.11;94.61;96016.03;5113329;28;20047;-63
2023/11/24 00:17:12;;;;;;;1999.90;999.90;;;;;;;8.08;94.46;96007.44;5113336;28;20040;-61
2023/11/24 00:19:39;;;;;;;1999.90;999.90;;;;;;;8.11;94.39;96005.59;5113199;28;20130;-65
2023/11/24 00:22:07;;;;;;;1999.90;999.90;;;;;;;8.09;94.36;96006.50;5113321;28;20369;-64
2023/11/24 00:24:34;;;;;;;1999.90;999.90;;;;;;;8.14;94.12;95995.94;5113399;28;20047;-64
2023/11/24 00:27:01;;;;;;;1999.90;999.90;;;;;;;8.15;93.78;96000.22;5113216;28;20131;-66
2023/11/24 00:29:28;;;;;;;1999.90;999.90;;;;;;;8.16;93.40;95991.50;5113300;28;20051;-62
2023/11/24 00:31:55;;;;;;;1999.90;999.90;;;;;;;8.15;93.48;95978.53;5113269;28;20076;-66
2023/11/24 00:34:23;;;;;;;1999.90;999.90;;;;;;;8.15;93.73;95968.09;5113148;28;20048;-64
2023/11/24 00:36:51;;;;;;;1999.90;999.90;;;;;;;8.18;93.45;95965.38;5113234;28;20051;-66
2023/11/24 00:39:19;;;;;;;1999.90;999.90;;;;;;;8.17;93.31;95961.94;5113154;28;20044;-64
2023/11/24 00:41:46;;;;;;;1999.90;999.90;;;;;;;8.17;93.21;95958.47;5113177;28;20048;-64
2023/11/24 00:44:13;;;;;;;1999.90;999.90;;;;;;;8.18;93.13;95952.34;5113086;28;20146;-63
2023/11/24 00:46:40;;;;;;;1999.90;999.90;;;;;;;8.17;93.33;95951.53;5113114;28;20086;-62
2023/11/24 00:49:07;;;;;;;1999.90;999.90;;;;;;;8.13;93.38;95952.53;5113069;28;20043;-62
2023/11/24 00:51:36;;;;;;;1999.90;999.90;;;;;;;8.13;93.40;95947.31;5112983;28;20068;-65
2023/11/24 00:54:03;;;;;;;1999.90;999.90;;;;;;;8.11;93.38;95953.50;5113965;28;20050;-63
2023/11/24 00:56:30;;;;;;;1999.90;999.90;;;;;;;8.11;93.50;95943.94;5116857;28;20051;-66
2023/11/24 00:58:57;;;;;;;1999.90;999.90;;;;;;;8.08;93.65;95944.91;5116730;28;20048;-63
2023/11/24 01:01:25;;;;;;;1999.90;999.90;;;;;;;8.05;93.41;95936.34;5116426;28;20492;-65
2023/11/24 01:03:52;;;;;;;1999.90;999.90;;;;;;;7.98;93.65;95927.94;5116712;28;20054;-65
2023/11/24 01:06:19;;;;;;;1999.90;999.90;;;;;;;8.00;93.94;95922.66;5116474;28;20047;-65
2023/11/24 01:08:47;;;;;;;1999.90;999.90;;;;;;;7.96;94.06;95914.09;5116538;28;20043;-64
2023/11/24 01:11:14;;;;;;;1999.90;999.90;;;;;;;7.93;94.09;95911.59;5116567;28;20047;-65
2023/11/24 01:13:41;;;;;;;1999.90;999.90;;;;;;;7.86;94.45;95907.53;5116497;28;20519;-66
2023/11/24 01:16:08;;;;;;;1999.90;999.90;;;;;;;7.79;94.63;95902.56;5116650;28;20066;-65
2023/11/24 01:18:37;;;;;;;1999.90;999.90;;;;;;;7.71;94.82;95905.44;5116382;28;20077;-65
2023/11/24 01:21:04;;;;;;;1999.90;999.90;;;;;;;7.68;95.10;95894.31;5116445;28;20056;-64
2023/11/24 01:23:31;;;;;;;1999.90;999.90;;;;;;;7.69;95.10;95882.97;5116220;28;20051;-63
2023/11/24 01:25:59;;;;;;;1999.90;999.90;;;;;;;7.68;95.19;95876.09;5116117;28;20108;-64
2023/11/24 01:28:27;;;;;;;1999.90;999.90;;;;;;;7.68;95.50;95884.72;5116245;28;20048;-66
2023/11/24 01:30:54;;;;;;;1999.90;999.90;;;;;;;7.67;95.48;95870.00;5116187;28;20055;-66
2023/11/24 01:33:21;;;;;;;1999.90;999.90;;;;;;;7.70;95.59;95875.09;5116203;28;20048;-63
2023/11/24 01:35:49;;;;;;;1999.90;999.90;;;;;;;7.63;95.66;95864.97;5116024;28;20412;-65
2023/11/24 01:38:16;;;;;;;1999.90;999.90;;;;;;;7.63;95.43;95859.78;5115970;28;20044;-66
2023/11/24 01:40:43;;;;;;;1999.90;999.90;;;;;;;7.65;95.77;95853.59;5116012;28;20079;-63
2023/11/24 01:43:11;;;;;;;1999.90;999.90;;;;;;;7.62;95.96;95845.94;5116039;28;20130;-65
2023/11/24 01:45:39;;;;;;;1999.90;999.90;;;;;;;7.67;95.99;95850.94;5115831;28;20112;-65
2023/11/24 01:48:07;;;;;;;1999.90;999.90;;;;;;;7.67;95.60;95846.59;5116152;28;20059;-63
2023/11/24 01:50:34;;;;;;;1999.90;999.90;;;;;;;7.64;95.41;95838.03;5115760;28;20127;-63
2023/11/24 01:53:01;;;;;;;1999.90;999.90;;;;;;;7.62;95.62;95837.25;5115580;28;20051;-63
2023/11/24 01:55:28;;;;;;;1999.90;999.90;;;;;;;7.60;95.62;95829.50;5115929;28;20047;-63
2023/11/24 01:57:56;;;;;;;1999.90;999.90;;;;;;;7.63;95.76;95834.59;5115730;28;20087;-65
2023/11/24 02:00:25;;;;;;;1999.90;999.90;;;;;;;7.65;95.64;95827.56;5115444;28;20051;-66
2023/11/24 02:02:52;;;;;;;1999.90;999.90;;;;;;;7.66;95.63;95820.59;5115588;28;20078;-65
2023/11/24 02:05:20;;;;;;;1999.90;999.90;;;;;;;7.64;95.78;95818.06;5115274;28;20421;-62
2023/11/24 02:07:47;;;;;;;1999.90;999.90;;;;;;;7.65;95.76;95809.34;5115450;28;20521;-65
2023/11/24 02:10:15;;;;;;;1999.90;999.90;;;;;;;7.61;95.76;95804.34;5115396;28;20461;-64
2023/11/24 02:12:42;;;;;;;1999.90;999.90;;;;;;;7.58;95.90;95806.13;5115285;27;20481;-63
2023/11/24 02:15:10;;;;;;;1999.90;999.90;;;;;;;7.53;95.76;95789.00;5115211;28;20417;-64
2023/11/24 02:17:38;;;;;;;1999.90;999.90;;;;;;;7.52;95.64;95788.13;5115447;28;20051;-64
2023/11/24 02:20:11;;;;;;;1999.90;999.90;;;;;;;7.47;95.64;95779.69;5115097;28;20138;-65
2023/11/24 02:22:41;;;;;;;1999.90;999.90;;;;;;;7.43;94.39;95780.69;5115193;28;20079;-62
2023/11/24 02:25:09;;;;;;;1999.90;999.90;;;;;;;7.35;94.44;95780.13;5115454;28;20413;-64
2023/11/24 02:27:36;;;;;;;1999.90;999.90;;;;;;;7.30;94.53;95770.75;5115060;28;20048;-65
2023/11/24 02:30:05;;;;;;;1999.90;999.90;;;;;;;7.28;94.59;95758.69;5114983;28;20051;-62
2023/11/24 02:32:33;;;;;;;1999.90;999.90;;;;;;;7.28;94.30;95761.28;5114988;28;20044;-64
2023/11/24 02:35:01;;;;;;;1999.90;999.90;;;;;;;7.26;94.11;95761.38;5114968;28;20048;-63
2023/11/24 02:37:28;;;;;;;1999.90;999.90;;;;;;;7.20;94.13;95753.78;5115081;28;20123;-62
2023/11/24 02:39:56;;;;;;;1999.90;999.90;;;;;;;7.19;94.00;95749.47;5114653;28;20048;-61
2023/11/24 02:42:24;;;;;;;1999.90;999.90;;;;;;;7.22;94.34;95756.34;5114744;28;20082;-64
2023/11/24 02:44:51;;;;;;;1999.90;999.90;;;;;;;7.17;94.34;95754.72;5114866;28;20481;-66
2023/11/24 02:47:18;;;;;;;1999.90;999.90;;;;;;;7.15;94.70;95755.69;5114545;28;20043;-63
2023/11/24 02:49:45;;;;;;;1999.90;999.90;;;;;;;7.14;94.60;95744.47;5114660;28;20087;-63
2023/11/24 02:52:12;;;;;;;1999.90;999.90;;;;;;;7.13;94.81;95741.91;5114428;28;20055;-64
2023/11/24 02:54:39;;;;;;;1999.90;999.90;;;;;;;7.10;94.52;95739.44;5114467;28;20083;-64
2023/11/24 02:57:08;;;;;;;1999.90;999.90;;;;;;;7.11;94.51;95738.50;5114572;28;20047;-65
2023/11/24 02:59:35;;;;;;;1999.90;999.90;;;;;;;7.11;94.85;95741.97;5114498;28;20047;-65
2023/11/24 03:02:02;;;;;;;1999.90;999.90;;;;;;;7.15;94.51;95734.88;5114247;27;20058;-62
2023/11/24 03:04:29;;;;;;;1999.90;999.90;;;;;;;7.14;94.17;95733.19;5114208;28;20052;-66
2023/11/24 03:06:57;;;;;;;1999.90;999.90;;;;;;;7.14;93.81;95723.66;5114119;28;20048;-63
2023/11/24 03:09:25;;;;;;;1999.90;999.90;;;;;;;7.14;93.38;95728.84;5114324;28;20504;-64
2023/11/24 03:11:54;;;;;;;1999.90;999.90;;;;;;;7.13;93.05;95721.94;5114213;28;20048;-63
2023/11/24 03:14:23;;;;;;;1999.90;999.90;;;;;;;7.11;93.15;95715.09;5114303;28;20113;-62
2023/11/24 03:16:51;;;;;;;1999.90;999.90;;;;;;;7.05;93.02;95711.81;5113824;28;20051;-63
2023/11/24 03:19:18;;;;;;;1999.90;999.90;;;;;;;7.03;93.29;95707.59;5114019;28;20425;-64
2023/11/24 03:21:46;;;;;;;1999.90;999.90;;;;;;;7.05;93.45;95708.38;5113842;28;20052;-66
2023/11/24 03:24:13;;;;;;;1999.90;999.90;;;;;;;7.01;93.50;95705.03;5113155;28;20076;-65
2023/11/24 03:26:40;;;;;;;1999.90;999.90;;;;;;;6.84;93.97;95703.06;5113863;28;20051;-63
2023/11/24 03:29:07;;;;;;;1999.90;999.90;;;;;;;6.65;94.06;95705.50;5114031;28;20127;-65
2023/11/24 03:31:36;;;;;;;1999.90;999.90;;;;;;;6.64;94.50;95688.19;5113881;28;20052;-66
2023/11/24 03:34:03;;;;;;;1999.90;999.90;;;;;;;6.60;94.67;95684.00;5113795;28;20044;-65
2023/11/24 03:36:30;;;;;;;1999.90;999.90;;;;;;;6.62;94.48;95672.66;5113851;28;20073;-65
2023/11/24 03:38:57;;;;;;;1999.90;999.90;;;;;;;6.59;94.47;95669.31;5113897;28;20127;-62
2023/11/24 03:41:24;;;;;;;1999.90;999.90;;;;;;;6.59;93.56;95669.31;5113629;28;20508;-62
2023/11/24 03:43:52;;;;;;;1999.90;999.90;;;;;;;6.60;92.99;95665.81;5113711;28;20051;-65
2023/11/24 03:46:19;;;;;;;1999.90;999.90;;;;;;;6.59;92.34;95659.75;5113653;28;20077;-65
2023/11/24 03:48:47;;;;;;;1999.90;999.90;;;;;;;6.54;91.91;95661.69;5113562;28;20091;-62
2023/11/24 03:51:18;;;;;;;1999.90;999.90;;;;;;;6.51;91.91;95651.41;5113637;28;20055;-63
2023/11/24 03:53:45;;;;;;;1999.90;999.90;;;;;;;6.50;91.42;95649.72;5113747;28;20449;-65
2023/11/24 03:56:15;;;;;;;1999.90;999.90;;;;;;;6.43;90.89;95647.34;5113654;28;20126;-65
2023/11/24 03:58:43;;;;;;;1999.90;999.90;;;;;;;6.41;89.09;95640.50;5113551;28;20416;-65
2023/11/24 04:01:13;;;;;;;1999.90;999.90;;;;;;;6.30;88.70;95630.50;5113789;28;20056;-66
2023/11/24 04:03:45;;;;;;;1999.90;999.90;;;;;;;6.17;87.77;95630.09;5113466;28;20044;-65
2023/11/24 04:06:14;;;;;;;1999.90;999.90;;;;;;;6.07;87.40;95635.59;5113103;28;20048;-64
2023/11/24 04:08:41;;;;;;;1999.90;999.90;;;;;;;5.97;87.65;95634.19;5113516;28;20040;-65
2023/11/24 04:11:09;;;;;;;1999.90;999.90;;;;;;;5.91;88.12;95630.06;5113342;28;20046;-64
2023/11/24 04:13:37;;;;;;;1999.90;999.90;;;;;;;5.87;88.47;95625.84;5113482;28;20054;-64
2023/11/24 04:16:04;;;;;;;1999.90;999.90;;;;;;;5.80;87.98;95624.34;5113322;28;20047;-61
2023/11/24 04:18:32;;;;;;;1999.90;999.90;;;;;;;5.76;87.47;95621.03;5113374;28;20043;-65
2023/11/24 04:20:59;;;;;;;1999.90;999.90;;;;;;;5.72;87.39;95622.00;5113346;28;20062;-65
2023/11/24 04:23:28;;;;;;;1999.90;999.90;;;;;;;5.68;88.00;95623.03;5113363;28;20130;-63
2023/11/24 04:25:55;;;;;;;1999.90;999.90;;;;;;;5.64;88.91;95622.28;5113277;28;20090;-62
2023/11/24 04:28:22;;;;;;;1999.90;999.90;;;;;;;5.62;90.21;95626.66;5113439;28;20131;-65
2023/11/24 04:30:50;;;;;;;1999.90;999.90;;;;;;;5.64;90.61;95624.03;5117206;28;20075;-63
2023/11/24 04:33:17;;;;;;;1999.90;999.90;;;;;;;5.65;91.36;95625.72;5117356;28;20048;-64
2023/11/24 04:35:44;;;;;;;1999.90;999.90;;;;;;;5.67;91.55;95623.94;5117256;28;20048;-64
2023/11/24 04:38:11;;;;;;;1999.90;999.90;;;;;;;5.68;91.38;95628.22;5117386;28;20054;-64
2023/11/24 04:40:40;;;;;;;1999.90;999.90;;;;;;;5.60;91.00;95623.25;5117052;28;20044;-64
2023/11/24 04:43:07;;;;;;;1999.90;999.90;;;;;;;5.48;91.02;95628.88;5117137;28;20454;-67
2023/11/24 04:45:35;;;;;;;1999.90;999.90;;;;;;;5.33;91.21;95627.63;5117029;28;20138;-65
2023/11/24 04:48:02;;;;;;;1999.90;999.90;;;;;;;5.26;91.82;95630.41;5117083;28;20051;-65
2023/11/24 04:50:29;;;;;;;1999.90;999.90;;;;;;;5.28;92.32;95631.22;5117096;28;20074;-66
2023/11/24 04:52:56;;;;;;;1999.90;999.90;;;;;;;5.31;92.91;95628.53;5116957;28;20058;-62
2023/11/24 04:55:23;;;;;;;1999.90;999.90;;;;;;;5.36;93.25;95619.75;5116898;28;20052;-66
2023/11/24 04:57:52;;;;;;;1999.90;999.90;;;;;;;5.35;94.10;95625.81;5116859;28;20055;-63
2023/11/24 05:00:19;;;;;;;1999.90;999.90;;;;;;;5.33;94.57;95607.72;5116821;28;20130;-65
2023/11/24 05:02:47;;;;;;;1999.90;999.90;;;;;;;5.32;95.40;95611.19;5116668;27;20467;-63
2023/11/24 05:05:16;;;;;;;1999.90;999.90;;;;;;;5.17;97.20;95612.53;5117035;28;20055;-63
2023/11/24 05:07:43;;;;;;;1999.90;999.90;;;;;;;5.05;98.29;95617.22;5116417;28;20043;-63
2023/11/24 05:10:11;;;;;;;1999.90;999.90;;;;;;;5.00;98.76;95606.13;5116753;28;20075;-66
2023/11/24 05:12:39;;;;;;;1999.90;999.90;;;;;;;4.92;98.54;95598.59;5116462;28;20130;-65
2023/11/24 05:15:12;;;;;;;1999.90;999.90;;;;;;;4.91;98.48;95599.47;5116531;28;20090;-67
2023/11/24 05:17:40;;;;;;;1999.90;999.90;;;;;;;4.91;98.35;95594.28;5116414;28;20040;-65
2023/11/24 05:20:12;;;;;;;1999.90;999.90;;;;;;;4.95;97.72;95597.66;5116457;28;20073;-62
2023/11/24 05:22:39;;;;;;;1999.90;999.90;;;;;;;4.92;96.85;95600.34;5116282;28;20055;-64
2023/11/24 05:25:07;;;;;;;1999.90;999.90;;;;;;;4.90;96.02;95604.69;5116400;28;20051;-63
2023/11/24 05:27:35;;;;;;;1999.90;999.90;;;;;;;4.92;95.88;95602.94;5116254;28;20134;-65
2023/11/24 05:30:07;;;;;;;1999.90;999.90;;;;;;;4.93;95.39;95609.78;5116172;28;20047;-64
2023/11/24 05:32:37;;;;;;;1999.90;999.90;;;;;;;4.96;94.67;95598.50;5116346;28;20416;-65
2023/11/24 05:35:05;;;;;;;1999.90;999.90;;;;;;;4.98;93.38;95607.94;5116168;28;20477;-64
2023/11/24 05:37:37;;;;;;;1999.90;999.90;;;;;;;5.01;93.84;95615.63;5116044;28;20048;-60
2023/11/24 05:40:07;;;;;;;1999.90;999.90;;;;;;;5.06;93.04;95605.09;5115726;28;20047;-65
2023/11/24 05:42:35;;;;;;;1999.90;999.90;;;;;;;5.05;90.86;95599.06;5115911;28;20051;-64
2023/11/24 05:45:03;;;;;;;1999.90;999.90;;;;;;;5.04;89.15;95599.97;5116208;28;20047;-65
2023/11/24 05:47:31;;;;;;;1999.90;999.90;;;;;;;5.03;89.21;95600.84;5115944;27;20451;-66
2023/11/24 05:50:00;;;;;;;1999.90;999.90;;;;;;;4.98;88.69;95605.34;5115776;28;20455;-66
2023/11/24 05:52:28;;;;;;;1999.90;999.90;;;;;;;4.93;88.77;95589.06;5115844;27;20047;-63
2023/11/24 05:54:58;;;;;;;1999.90;999.90;;;;;;;4.96;88.60;95581.19;5115746;28;20056;-66
2023/11/24 05:57:25;;;;;;;1999.90;999.90;;;;;;;5.05;88.33;95583.50;5115680;27;20121;-63
2023/11/24 05:59:52;;;;;;;1999.90;999.90;;;;;;;5.50;89.44;95580.38;5115716;27;20459;-67
2023/11/24 06:02:20;;;;;;;1999.90;999.90;;;;;;;6.47;85.60;95577.06;5115435;28;20081;-65
2023/11/24 06:04:48;;;;;;;1999.90;999.90;;;;;;;7.66;79.54;95576.78;5115466;28;20040;-66
2023/11/24 06:07:17;;;;;;;1999.90;999.90;;;;;;;8.80;72.94;95573.63;5115412;28;20443;-63
2023/11/24 06:09:44;;;;;;;1999.90;999.90;;;;;;;9.88;68.50;95590.25;5115319;28;20050;-62
2023/11/24 06:12:12;;;;;;;1999.90;999.90;;;;;;;10.89;64.08;95583.34;5115450;28;20050;-65
2023/11/24 06:14:39;;;;;;;1999.90;999.90;;;;;;;11.87;59.12;95586.56;5115444;28;20145;-63
2023/11/24 06:17:06;;;;;;;1999.90;999.90;;;;;;;12.89;56.11;95589.28;5115167;28;20058;-63
2023/11/24 06:19:35;;;;;;;1999.90;999.90;;;;;;;13.80;53.55;95569.59;5115281;28;20126;-66
2023/11/24 06:22:02;;;;;;;1999.90;999.90;;;;;;;14.39;51.33;95579.63;5115103;28;20048;-62
2023/11/24 06:24:31;;;;;;;1999.90;999.90;;;;;;;14.98;50.02;95574.75;5115253;28;20043;-64
2023/11/24 06:26:58;;;;;;;1999.90;999.90;;;;;;;15.23;49.15;95572.97;5115153;28;20055;-64
2023/11/24 06:29:26;;;;;;;1999.90;999.90;;;;;;;14.80;49.35;95574.28;5115088;28;20040;-65
2023/11/24 06:31:53;;;;;;;1999.90;999.90;;;;;;;14.22;50.31;95562.41;5115057;28;20116;-65
2023/11/24 06:34:20;;;;;;;1999.90;999.90;;;;;;;13.72;51.69;95567.47;5115066;28;20123;-62
2023/11/24 06:36:49;;;;;;;1999.90;999.90;;;;;;;13.28;52.21;95570.28;5114928;28;20105;-65
2023/11/24 06:39:19;;;;;;;1999.90;999.90;;;;;;;12.88;52.64;95563.13;5114907;28;20134;-63
2023/11/24 06:41:48;;;;;;;1999.90;999.90;;;;;;;12.54;53.79;95562.59;5115088;28;20063;-64
2023/11/24 06:44:16;;;;;;;1999.90;999.90;;;;;;;12.50;55.18;95565.41;5114870;28;20065;-65
2023/11/24 06:46:43;;;;;;;1999.90;999.90;;;;;;;12.85;55.24;95558.91;5114762;28;20055;-66
2023/11/24 06:49:11;;;;;;;1999.90;999.90;;;;;;;13.56;53.85;95560.63;5114625;28;20119;-63
2023/11/24 06:51:38;;;;;;;1999.90;999.90;;;;;;;14.57;51.50;95560.06;5113864;28;20048;-62
2023/11/24 06:54:06;;;;;;;1999.90;999.90;;;;;;;15.73;48.72;95564.13;5114585;28;20071;-63
2023/11/24 06:56:33;;;;;;;1999.90;999.90;;;;;;;17.09;46.01;95564.44;5114526;28;20050;-65
2023/11/24 06:59:02;;;;;;;1999.90;999.90;;;;;;;18.52;42.73;95564.31;5114358;28;20497;-64
2023/11/24 07:01:31;;;;;;;1999.90;999.90;;;;;;;19.67;40.35;95562.28;5114532;28;20052;-63
2023/11/24 07:03:59;;;;;;;1999.90;999.90;;;;;;;20.75;37.93;95560.44;5114394;28;20485;-65
2023/11/24 07:06:27;;;;;;;1999.90;999.90;;;;;;;21.75;36.06;95561.59;5114095;28;20123;-64
2023/11/24 07:08:54;;;;;;;1999.90;999.90;;;;;;;22.65;35.06;95557.13;5114399;27;20100;-62
2023/11/24 07:11:22;;;;;;;1999.90;999.90;;;;;;;23.20;33.96;95548.84;5114141;28;20051;-65
2023/11/24 07:13:51;;;;;;;1999.90;999.90;;;;;;;23.69;32.65;95545.47;5114308;28;20044;-67
2023/11/24 07:16:19;;;;;;;1999.90;999.90;;;;;;;24.31;32.34;95542.50;5114102;28;20085;-62
2023/11/24 07:18:46;;;;;;;1999.90;999.90;;;;;;;24.95;32.30;95536.34;5114227;28;20459;-63
2023/11/24 07:21:15;;;;;;;1999.90;999.90;;;;;;;25.56;31.25;95534.88;5113951;28;20139;-65
2023/11/24 07:23:42;;;;;;;1999.90;999.90;;;;;;;25.59;30.49;95536.38;5113895;28;20051;-62
2023/11/24 07:26:10;;;;;;;1999.90;999.90;;;;;;;25.79;30.11;95533.25;5114023;28;20079;-64
2023/11/24 07:28:37;;;;;;;1999.90;999.90;;;;;;;25.86;29.91;95526.97;5114146;28;20044;-65
2023/11/24 07:31:04;;;;;;;1999.90;999.90;;;;;;;25.88;29.93;95520.63;5113976;28;20397;-62
2023/11/24 07:33:33;;;;;;;1999.90;999.90;;;;;;;26.36;29.39;95529.25;5113773;28;20054;-63
2023/11/24 07:36:00;;;;;;;1999.90;999.90;;;;;;;26.45;29.65;95519.28;5113995;28;20378;-63
2023/11/24 07:38:28;;;;;;;1999.90;999.90;;;;;;;27.08;28.35;95525.31;5113896;28;20039;-63
2023/11/24 07:40:55;;;;;;;1999.90;999.90;;;;;;;27.63;27.23;95523.03;5113714;28;20047;-65
2023/11/24 07:43:22;;;;;;;80.05;75.60;;;;;;;28.06;27.00;95521.41;5113669;28;20410;-65
2023/11/24 07:45:51;;;;;;;80.53;76.03;;;;;;;28.15;27.28;95511.34;5113684;28;20055;-65
2023/11/24 07:48:19;;;;;;;78.95;74.53;;;;;;;28.12;26.95;95509.06;5113848;28;20054;-66
2023/11/24 07:50:49;;;;;;;83.28;78.55;;;;;;;27.88;27.58;95513.81;5113631;28;20512;-67
2023/11/24 07:53:16;;;;;;;102.18;96.57;;;;;;;27.95;27.84;95508.47;5113900;28;20048;-67
2023/11/24 07:55:44;;;;;;;86.72;81.88;;;;;;;27.49;28.23;95508.66;5113559;28;20560;-65
2023/11/24 07:58:12;;;;;;;100.75;95.00;;;;;;;27.52;28.25;95498.56;5113654;28;20069;-65
2023/11/24 08:00:40;;;;;;;81.00;76.40;;;;;;;27.38;28.08;95498.41;5113555;28;20048;-66
2023/11/24 08:03:08;;;;;;;75.72;71.38;;;;;;;27.35;28.83;95496.94;5115651;28;20050;-64
2023/11/24 08:05:36;;;;;;;63.83;60.22;;;;;;;27.55;27.93;95499.00;5120273;28;20044;-64
2023/11/24 08:08:06;;;;;;;67.60;63.75;;;;;;;27.77;28.15;95485.59;5120272;28;20092;-65
2023/11/24 08:10:33;;;;;;;62.15;58.53;;;;;;;27.48;28.27;95482.81;5120230;27;20511;-62
2023/11/24 08:13:00;;;;;;;59.03;55.60;;;;;;;27.81;27.79;95475.31;5120144;28;20539;-64
2023/11/24 08:15:27;;;;;;;48.78;45.80;;;;;;;27.67;28.52;95469.84;5120280;27;20051;-65
2023/11/24 08:17:54;;;;;;;43.88;40.97;;;;;;;27.20;29.09;95467.47;5120282;27;20397;-65
2023/11/24 08:20:22;;;;;;;44.03;41.22;;;;;;;26.57;29.73;95465.22;5120102;27;20451;-63
2023/11/24 08:22:50;;;;;;;39.80;37.20;;;;;;;26.40;29.69;95457.38;5120452;28;20447;-62
2023/11/24 08:25:20;;;;;;;38.45;36.25;;;;;;;26.34;29.95;95450.06;5120099;27;20047;-62
2023/11/24 08:27:48;;;;;;;34.20;31.85;;;;;;;25.90;30.43;95457.84;5120242;27;20051;-63
2023/11/24 08:30:16;;;;;;;37.95;35.70;;;;;;;25.12;32.11;95456.03;5120095;27;20469;-61
2023/11/24 08:32:43;;;;;;;45.25;42.00;;;;;;;24.17;33.02;95445.22;5120074;27;20097;-65
2023/11/24 08:35:11;;;;;;;52.78;49.75;;;;;;;23.70;34.60;95451.09;5120121;28;20085;-63
2023/11/24 08:37:38;;;;;;;47.83;44.63;;;;;;;23.18;35.35;95447.66;5120127;27;20083;-65
2023/11/24 08:40:10;;;;;;;53.95;50.83;;;;;;;22.75;36.96;95444.25;5119859;28;20577;-65
2023/11/24 08:42:40;;;;;;;1999.90;999.90;;;;;;;21.85;37.91;95428.44;5119972;27;20052;-61
2023/11/24 08:45:08;;;;;;;1999.90;999.90;;;;;;;20.96;39.55;95427.34;5119987;27;20047;-65
2023/11/24 08:47:35;;;;;;;1999.90;999.90;;;;;;;20.01;42.22;95427.50;5119979;27;20047;-64
2023/11/24 08:50:03;;;;;;;1999.90;999.90;;;;;;;19.25;43.65;95420.22;5119934;28;20101;-62
2023/11/24 08:52:30;;;;;;;1999.90;999.90;;;;;;;18.66;45.01;95418.31;5119849;28;20055;-62
2023/11/24 08:54:57;;;;;;;1999.90;999.90;;;;;;;18.14;45.95;95407.84;5120060;28;20051;-65
2023/11/24 08:57:24;;;;;;;1999.90;999.90;;;;;;;17.66;48.26;95402.13;5119668;27;20047;-63
2023/11/24 08:59:54;;;;;;;1999.90;999.90;;;;;;;17.41;50.05;95389.22;5119718;27;20382;-66
2023/11/24 09:02:22;;;;;;;1999.90;999.90;;;;;;;17.24;50.30;95393.25;5119849;27;20055;-63
2023/11/24 09:04:50;;;;;;;1999.90;999.90;;;;;;;17.19;50.94;95387.53;5120033;27;20051;-65
2023/11/24 09:07:18;;;;;;;1999.90;999.90;;;;;;;17.24;50.90;95390.59;5119536;27;20489;-62
2023/11/24 09:09:45;;;;;;;1999.90;999.90;;;;;;;17.27;51.83;95381.59;5119574;28;20130;-62
2023/11/24 09:12:12;;;;;;;1999.90;999.90;;;;;;;17.29;52.10;95374.38;5119621;28;20073;-63
2023/11/24 09:14:40;;;;;;;1999.90;999.90;;;;;;;17.30;50.80;95373.41;5117720;27;20097;-64
2023/11/24 09:17:09;;;;;;;1999.90;999.90;;;;;;;17.23;51.41;95373.09;5116395;28;20044;-60
2023/11/24 09:19:36;;;;;;;1999.90;999.90;;;;;;;17.09;51.02;95366.31;5116526;28;20048;-66
2023/11/24 09:22:05;;;;;;;1999.90;999.90;;;;;;;16.74;52.23;95367.38;5116572;28;20086;-62
2023/11/24 09:24:33;;;;;;;1999.90;999.90;;;;;;;16.53;52.30;95353.16;5116345;28;20039;-65
2023/11/24 09:27:00;;;;;;;1999.90;999.90;;;;;;;16.45;52.75;95342.41;5116209;28;20043;-64
2023/11/24 09:29:27;;;;;;;1999.90;999.90;;;;;;;16.21;53.28;95338.13;5116179;28;20516;-64
2023/11/24 09:31:57;;;;;;;1999.90;999.90;;;;;;;16.09;53.50;95331.19;5116184;28;20146;-65
2023/11/24 09:34:28;;;;;;;1999.90;999.90;;;;;;;15.98;54.56;95335.53;5116119;28;20665;-65
2023/11/24 09:36:55;;;;;;;1999.90;999.90;;;;;;;15.87;54.84;95325.78;5116509;28;20199;-62
2023/11/24 09:39:26;;;;;;;1999.90;999.90;;;;;;;15.89;54.79;95313.31;5115935;28;20100;-60
2023/11/24 09:41:55;;;;;;;1999.90;999.90;;;;;;;15.83;55.18;95310.34;5115976;28;20135;-63
2023/11/24 09:44:22;;;;;;;1999.90;999.90;;;;;;;15.84;55.64;95310.22;5115880;28;20083;-63
2023/11/24 09:46:51;;;;;;;1999.90;999.90;;;;;;;15.68;54.87;95302.66;5115979;28;20047;-62
2023/11/24 09:49:18;;;;;;;1999.90;999.90;;;;;;;15.72;54.85;95303.28;5115911;28;20054;-64
2023/11/24 09:51:46;;;;;;;1999.90;999.90;;;;;;;15.72;54.57;95295.38;5115732;28;20096;-62
2023/11/24 09:54:17;;;;;;;1999.90;999.90;;;;;;;15.72;54.14;95295.38;5115779;28;20055;-64
2023/11/24 09:56:44;;;;;;;1999.90;999.90;;;;;;;15.68;54.81;95288.66;5115750;28;20085;-65
2023/11/24 09:59:13;;;;;;;1999.90;999.90;;;;;;;15.62;55.34;95290.81;5115583;28;20051;-62
2023/11/24 10:01:40;;;;;;;1999.90;999.90;;;;;;;15.57;55.83;95287.72;5115786;28;20481;-66
2023/11/24 10:04:08;;;;;;;1999.90;999.90;;;;;;;15.50;55.73;95284.69;5115501;28;20052;-65
2023/11/24 10:06:38;;;;;;;1999.90;999.90;;;;;;;15.45;55.98;95271.06;5115555;28;20052;-64
2023/11/24 10:09:10;;;;;;;1999.90;999.90;;;;;;;15.43;56.13;95269.50;5115526;28;20161;-66
2023/11/24 10:11:38;;;;;;;1999.90;999.90;;;;;;;15.40;55.91;95257.41;5115383;28;20053;-64
2023/11/24 10:14:11;;;;;;;1999.90;999.90;;;;;;;15.36;56.82;95255.97;5115453;28;20044;-66
2023/11/24 10:16:40;;;;;;;1999.90;999.90;;;;;;;15.26;57.20;95250.59;5115432;28;20131;-62
2023/11/24 10:19:14;;;;;;;1999.90;999.90;;;;;;;15.24;57.04;95239.31;5115253;28;20043;-62
2023/11/24 10:21:45;;;;;;;1999.90;999.90;;;;;;;15.23;56.92;95248.19;5115359;27;20051;-64
2023/11/24 10:24:14;;;;;;;1999.90;999.90;;;;;;;15.27;56.58;95241.72;5115157;28;20132;-60
2023/11/24 10:26:44;;;;;;;1999.90;999.90;;;;;;;15.24;56.77;95227.00;5113924;28;20068;-62
2023/11/24 10:29:11;;;;;;;1999.90;999.90;;;;;;;15.27;56.86;95220.66;5115036;28;20082;-66
2023/11/24 10:31:39;;;;;;;1999.90;999.90;;;;;;;15.20;56.35;95217.63;5115113;28;20052;-65
2023/11/24 10:34:06;;;;;;;1999.90;999.90;;;;;;;15.24;56.67;95216.47;5115078;28;20569;-61
2023/11/24 10:36:36;;;;;;;1999.90;999.90;;;;;;;15.19;56.23;95221.25;5114895;28;20398;-63
2023/11/24 10:39:08;;;;;;;1999.90;999.90;;;;;;;15.17;56.11;95215.25;5114880;28;20451;-60
2023/11/24 10:41:43;;;;;;;1999.90;999.90;;;;;;;15.10;56.78;95220.16;5114868;28;20051;-64
2023/11/24 10:44:12;;;;;;;1999.90;999.90;;;;;;;15.15;56.45;95209.28;5114746;28;20054;-62
2023/11/24 10:46:43;;;;;;;1999.90;999.90;;;;;;;15.18;57.04;95205.56;5114691;28;20047;-64
2023/11/24 10:49:18;;;;;;;1999.90;999.90;;;;;;;15.19;57.26;95196.69;5114658;28;20054;-64
2023/11/24 10:51:53;;;;;;;1999.90;999.90;;;;;;;15.12;57.68;95191.94;5114888;27;20462;-64
2023/11/24 10:54:25;;;;;;;1999.90;999.90;;;;;;;15.11;57.56;95184.97;5114624;28;20051;-61
2023/11/24 10:56:57;;;;;;;1999.90;999.90;;;;;;;15.24;56.93;95181.38;5114465;28;20393;-64
2023/11/24 10:59:27;;;;;;;1999.90;999.90;;;;;;;15.22;57.84;95172.75;5114609;28;20052;-66
2023/11/24 11:01:56;;;;;;;1999.90;999.90;;;;;;;15.28;56.71;95174.91;5114338;28;20052;-61
2023/11/24 11:04:23;;;;;;;1999.90;999.90;;;;;;;15.32;57.92;95171.06;5114578;28;20052;-65